createdAt,value
2022-10-25T00:00:05.604Z,1.98
2022-10-25T00:04:07.341Z,2.10
2022-10-25T00:08:09.693Z,2.03
2022-10-25T00:12:11.322Z,1.90
2022-10-25T00:16:15.590Z,1.70
2022-10-25T00:20:18.027Z,1.67
2022-10-25T00:24:19.687Z,1.85
2022-10-25T00:28:21.364Z,1.67
2022-10-25T00:32:23.137Z,1.60
2022-10-25T00:36:26.403Z,1.50
2022-10-25T00:40:28.082Z,1.98
2022-10-25T00:44:50.326Z,1.42
2022-10-25T00:49:19.047Z,1.60
2022-10-25T00:53:25.404Z,1.67
2022-10-25T00:57:39.580Z,1.53
2022-10-25T01:01:42.059Z,1.30
2022-10-25T01:05:44.865Z,2.15
2022-10-25T01:09:46.575Z,1.40
2022-10-25T01:13:49.253Z,1.52
2022-10-25T01:18:16.784Z,1.45
2022-10-25T01:22:33.064Z,1.98
2022-10-25T01:26:42.751Z,1.23
2022-10-25T01:31:01.298Z,1.62
2022-10-25T01:35:28.903Z,1.83
2022-10-25T01:39:35.723Z,1.33
2022-10-25T01:43:42.268Z,1.50
2022-10-25T01:47:49.579Z,1.83
2022-10-25T01:51:51.458Z,1.25
2022-10-25T01:56:00.219Z,1.80
2022-10-25T02:00:12.575Z,1.20
2022-10-25T02:04:19.232Z,1.50
2022-10-25T02:08:30.627Z,1.30
2022-10-25T02:12:56.717Z,1.48
2022-10-25T02:17:07.650Z,1.10
2022-10-25T02:21:12.498Z,1.52
2022-10-25T02:25:14.937Z,1.40
2022-10-25T02:29:18.827Z,1.67
2022-10-25T02:33:20.783Z,1.52
2022-10-25T02:37:22.548Z,2.47
2022-10-25T02:41:24.553Z,1.65
2022-10-25T02:45:26.206Z,1.55
2022-10-25T02:49:28.406Z,1.55
2022-10-25T02:53:30.719Z,1.55
2022-10-25T02:57:37.299Z,1.48
2022-10-25T03:01:39.185Z,1.17
2022-10-25T03:05:40.835Z,1.20
2022-10-25T03:09:42.607Z,1.40
2022-10-25T03:13:44.506Z,1.30
2022-10-25T03:17:46.522Z,1.50
2022-10-25T03:21:48.716Z,1.50
2022-10-25T03:25:55.569Z,1.40
2022-10-25T03:29:57.230Z,1.17
2022-10-25T03:33:58.899Z,0.93
2022-10-25T03:38:00.577Z,1.30
2022-10-25T03:42:02.238Z,1.20
2022-10-25T03:46:04.027Z,1.60
2022-10-25T03:50:07.010Z,1.42
2022-10-25T03:54:08.681Z,1.80
2022-10-25T03:58:10.384Z,1.70
2022-10-25T04:02:12.886Z,1.62
2022-10-25T04:06:14.576Z,1.75
2022-10-25T04:10:19.084Z,1.77
2022-10-25T04:14:21.034Z,2.12
2022-10-25T04:18:22.735Z,1.60
2022-10-25T04:22:24.606Z,1.62
2022-10-25T04:26:26.924Z,1.52
2022-10-25T04:30:28.587Z,1.40
2022-10-25T04:34:30.237Z,1.55
2022-10-25T04:38:31.996Z,1.95
2022-10-25T04:42:34.448Z,1.45
2022-10-25T04:46:36.158Z,1.62
2022-10-25T04:50:38.071Z,1.73
2022-10-25T04:54:39.742Z,1.60
2022-10-25T04:58:41.504Z,1.87
2022-10-25T05:02:43.248Z,2.70
2022-10-25T05:06:44.951Z,1.75
2022-10-25T05:10:54.854Z,1.67
2022-10-25T05:14:56.536Z,1.95
2022-10-25T05:18:58.195Z,2.03
2022-10-25T05:22:59.830Z,1.73
2022-10-25T05:27:01.474Z,2.28
2022-10-25T05:31:14.207Z,2.20
2022-10-25T05:35:15.927Z,1.92
2022-10-25T05:39:17.591Z,2.40
2022-10-25T05:43:19.280Z,2.12
2022-10-25T05:47:20.916Z,2.22
2022-10-25T05:51:34.767Z,2.30
2022-10-25T05:55:37.319Z,2.33
2022-10-25T05:59:38.980Z,2.67
2022-10-25T06:03:40.913Z,2.20
2022-10-25T06:07:42.609Z,2.42
2022-10-25T06:11:44.776Z,2.25
2022-10-25T06:15:46.622Z,2.45
2022-10-25T06:19:48.293Z,2.92
2022-10-25T06:23:50.414Z,2.58
2022-10-25T06:27:52.230Z,2.42
2022-10-25T06:31:54.037Z,2.95
2022-10-25T06:35:57.216Z,3.10
2022-10-25T06:39:58.890Z,2.85
2022-10-25T06:44:05.358Z,1.60
2022-10-25T06:48:08.748Z,2.25
2022-10-25T06:52:10.438Z,2.28
2022-10-25T06:56:14.924Z,1.98
2022-10-25T07:00:17.094Z,2.47
2022-10-25T07:04:18.806Z,1.60
2022-10-25T07:08:20.812Z,2.00
2022-10-25T07:12:22.544Z,3.03
2022-10-25T07:16:24.952Z,1.85
2022-10-25T07:20:26.597Z,1.77
2022-10-25T07:24:28.261Z,1.60
2022-10-25T07:28:29.948Z,2.08
2022-10-25T07:32:31.611Z,2.12
2022-10-25T07:36:33.646Z,2.00
2022-10-25T07:40:35.304Z,2.00
2022-10-25T07:44:37.100Z,2.00
2022-10-25T07:48:38.872Z,1.55
2022-10-25T07:52:40.542Z,1.65
2022-10-25T07:56:42.252Z,1.62
2022-10-25T08:00:43.939Z,1.77
2022-10-25T08:04:45.598Z,2.33
2022-10-25T08:08:47.547Z,2.03
2022-10-25T08:12:49.792Z,2.55
2022-10-25T08:16:51.485Z,1.20
2022-10-25T08:21:08.512Z,1.58
2022-10-25T08:25:10.330Z,1.33
2022-10-25T08:29:12.224Z,1.50
2022-10-25T08:33:14.107Z,2.28
2022-10-25T08:37:15.781Z,1.83
2022-10-25T08:41:40.085Z,2.17
2022-10-25T08:45:53.252Z,1.65
2022-10-25T08:50:12.321Z,1.52
2022-10-25T08:54:17.173Z,1.48
2022-10-25T08:58:22.825Z,1.50
2022-10-25T09:02:48.796Z,1.80
2022-10-25T09:06:56.562Z,1.70
2022-10-25T09:11:17.747Z,1.70
2022-10-25T09:15:40.449Z,1.73
2022-10-25T09:19:53.200Z,1.83
2022-10-25T09:24:13.028Z,1.80
2022-10-25T09:28:21.197Z,1.77
2022-10-25T09:32:52.276Z,1.92
2022-10-25T09:37:16.957Z,1.50
2022-10-25T09:41:42.271Z,1.33
2022-10-25T09:45:56.938Z,1.52
2022-10-25T09:50:11.988Z,1.50
2022-10-25T09:54:28.100Z,1.20
2022-10-25T09:58:35.783Z,1.40
2022-10-25T10:02:37.604Z,1.48
2022-10-25T10:06:40.526Z,1.40
2022-10-25T10:10:42.572Z,1.17
2022-10-25T10:15:11.260Z,1.33
2022-10-25T10:19:15.231Z,0.98
2022-10-25T10:23:17.953Z,1.20
2022-10-25T10:27:22.411Z,1.52
2022-10-25T10:31:24.163Z,1.30
2022-10-25T10:35:35.198Z,1.12
2022-10-25T10:40:07.907Z,1.40
2022-10-25T10:44:13.968Z,1.50
2022-10-25T10:48:21.119Z,1.70
2022-10-25T10:52:34.428Z,1.52
2022-10-25T10:56:36.109Z,1.40
2022-10-25T11:00:37.887Z,1.50
2022-10-25T11:04:50.554Z,1.25
2022-10-25T11:09:12.230Z,1.10
2022-10-25T11:13:19.822Z,1.17
2022-10-25T11:17:31.945Z,0.90
2022-10-25T11:21:55.386Z,0.90
2022-10-25T11:26:39.177Z,1.33
2022-10-25T11:31:15.214Z,1.50
2022-10-25T11:35:40.512Z,0.70
2022-10-25T11:39:58.699Z,1.33
2022-10-25T11:44:23.141Z,1.00
2022-10-25T11:48:55.452Z,1.00
2022-10-25T11:53:09.358Z,0.90
2022-10-25T11:57:25.307Z,0.90
2022-10-25T12:02:03.390Z,1.20
2022-10-25T12:06:17.015Z,0.90
2022-10-25T12:10:39.863Z,0.90
2022-10-25T12:14:46.258Z,1.30
2022-10-25T12:19:08.984Z,1.57
2022-10-25T12:23:16.605Z,1.00
2022-10-25T12:27:22.322Z,1.30
2022-10-25T12:31:28.585Z,1.70
2022-10-25T12:35:35.896Z,1.25
2022-10-25T12:39:42.516Z,1.20
2022-10-25T12:44:11.858Z,1.08
2022-10-25T12:48:34.150Z,0.90
2022-10-25T12:52:44.458Z,1.33
2022-10-25T12:57:14.251Z,1.25
2022-10-25T13:01:24.849Z,1.42
2022-10-25T13:05:51.662Z,1.02
2022-10-25T13:09:53.453Z,0.98
2022-10-25T13:13:55.629Z,1.20
2022-10-25T13:18:06.703Z,0.88
2022-10-25T13:22:34.154Z,0.88
2022-10-25T13:27:14.935Z,1.30
2022-10-25T13:31:35.167Z,1.00
2022-10-25T13:35:36.862Z,1.20
2022-10-25T13:39:45.489Z,0.80
2022-10-25T13:44:02.374Z,0.80
2022-10-25T13:48:18.184Z,0.60
2022-10-25T13:52:33.197Z,0.90
2022-10-25T13:56:37.020Z,0.70
2022-10-25T14:00:47.956Z,0.52
2022-10-25T14:04:52.894Z,0.70
2022-10-25T14:09:12.646Z,0.60
2022-10-25T14:13:24.395Z,0.77
2022-10-25T14:17:43.388Z,0.57
2022-10-25T14:21:48.203Z,0.60
2022-10-25T14:26:02.051Z,0.95
2022-10-25T14:30:29.507Z,1.05
2022-10-25T14:34:31.614Z,0.60
2022-10-25T14:38:50.253Z,0.60
2022-10-25T14:42:55.199Z,0.80
2022-10-25T14:46:58.505Z,1.27
2022-10-25T14:51:13.675Z,0.68
2022-10-25T14:55:29.281Z,0.85
2022-10-25T14:59:46.216Z,0.60
2022-10-25T15:03:51.252Z,0.70
2022-10-25T15:07:57.854Z,0.77
2022-10-25T15:12:24.822Z,0.80
2022-10-25T15:16:37.460Z,0.73
2022-10-25T15:20:39.142Z,0.47
2022-10-25T15:24:45.834Z,0.60
2022-10-25T15:28:54.362Z,0.82
2022-10-25T15:32:56.030Z,0.70
2022-10-25T15:36:58.132Z,1.00
2022-10-25T15:40:59.799Z,0.73
2022-10-25T15:45:04.383Z,1.02
2022-10-25T15:49:08.184Z,0.77
2022-10-25T15:53:11.819Z,0.60
2022-10-25T15:57:13.487Z,0.90
2022-10-25T16:01:15.405Z,0.85
2022-10-25T16:05:23.863Z,0.70
2022-10-25T16:09:25.488Z,0.90
2022-10-25T16:13:34.222Z,0.90
2022-10-25T16:17:35.872Z,0.93
2022-10-25T16:21:37.539Z,0.80
2022-10-25T16:25:39.323Z,1.27
2022-10-25T16:29:41.261Z,0.95
2022-10-25T16:33:42.952Z,1.10
2022-10-25T16:37:45.190Z,1.02
2022-10-25T16:41:47.622Z,1.65
2022-10-25T16:45:49.251Z,2.15
2022-10-25T16:49:51.252Z,1.70
2022-10-25T16:53:53.184Z,1.65
2022-10-25T16:57:56.532Z,1.77
2022-10-25T17:01:58.313Z,1.90
2022-10-25T17:06:00.532Z,2.85
2022-10-25T17:10:06.939Z,1.53
2022-10-25T17:14:12.633Z,1.50
2022-10-25T17:18:19.386Z,1.67
2022-10-25T17:22:21.877Z,1.25
2022-10-25T17:26:23.529Z,4.12
2022-10-25T17:30:25.195Z,2.08
2022-10-25T17:34:27.042Z,1.52
2022-10-25T17:38:28.699Z,1.70
2022-10-25T17:42:30.451Z,1.62
2022-10-25T17:46:32.632Z,1.95
2022-10-25T17:50:36.667Z,1.42
2022-10-25T17:54:39.300Z,1.80
2022-10-25T17:58:42.732Z,2.03
2022-10-25T18:02:50.348Z,1.20
2022-10-25T18:06:52.083Z,1.50
2022-10-25T18:10:53.787Z,1.80
2022-10-25T18:14:55.875Z,1.40
2022-10-25T18:19:00.132Z,1.92
2022-10-25T18:23:01.835Z,1.67
2022-10-25T18:27:03.520Z,2.50
2022-10-25T18:31:07.825Z,1.85
2022-10-25T18:35:09.735Z,2.08
2022-10-25T18:39:11.437Z,1.70
2022-10-25T18:43:13.136Z,1.70
2022-10-25T18:47:14.846Z,1.42
2022-10-25T18:51:16.499Z,2.22
2022-10-25T18:59:25.267Z,2.37
2022-10-25T19:03:26.953Z,2.35
2022-10-25T19:07:28.649Z,2.45
2022-10-25T19:11:30.431Z,3.17
2022-10-25T19:15:32.308Z,3.10
2022-10-25T19:19:34.026Z,3.40
2022-10-25T19:23:36.577Z,2.60
2022-10-25T19:27:38.411Z,2.80
2022-10-25T19:31:40.172Z,3.55
2022-10-25T19:35:41.902Z,2.58
2022-10-25T19:39:44.775Z,2.55
2022-10-25T19:43:46.597Z,2.67
2022-10-25T19:47:50.081Z,2.70
2022-10-25T19:51:52.049Z,2.60
2022-10-25T19:56:01.325Z,2.37
2022-10-25T20:00:04.246Z,2.58
2022-10-25T20:04:06.064Z,2.50
2022-10-25T20:08:07.828Z,2.70
2022-10-25T20:12:09.607Z,2.45
2022-10-25T20:16:13.663Z,2.53
2022-10-25T20:20:15.363Z,3.17
2022-10-25T20:24:17.080Z,2.65
2022-10-25T20:28:19.058Z,2.95
2022-10-25T20:32:21.260Z,3.50
2022-10-25T20:36:23.358Z,2.65
2022-10-25T20:40:25.150Z,2.55
2022-10-25T20:44:26.831Z,2.95
2022-10-25T20:48:28.982Z,3.15
2022-10-25T20:52:30.738Z,2.45
2022-10-25T20:56:32.455Z,2.70
2022-10-25T21:00:34.428Z,2.87
2022-10-25T21:04:42.678Z,2.40
2022-10-25T21:08:54.970Z,3.12
2022-10-25T21:12:58.728Z,3.03
2022-10-25T21:17:00.412Z,2.67
2022-10-25T21:21:05.567Z,2.85
2022-10-25T21:25:07.670Z,1.90
2022-10-25T21:29:09.383Z,2.35
2022-10-25T21:33:11.024Z,2.25
2022-10-25T21:37:13.751Z,2.47
2022-10-25T21:41:19.695Z,3.00
2022-10-25T21:45:21.353Z,2.40
2022-10-25T21:49:23.032Z,2.30
2022-10-25T21:53:25.053Z,2.30
2022-10-25T21:57:26.775Z,2.33
2022-10-25T22:01:30.091Z,2.50
2022-10-25T22:05:31.871Z,3.03
2022-10-25T22:09:33.500Z,2.85
2022-10-25T22:13:35.471Z,2.47
2022-10-25T22:17:37.141Z,2.62
2022-10-25T22:21:39.295Z,2.45
2022-10-25T22:25:40.928Z,2.28
2022-10-25T22:29:42.593Z,2.10
2022-10-25T22:33:45.295Z,2.00
2022-10-25T22:37:47.095Z,2.05
2022-10-25T22:41:52.728Z,2.28
2022-10-25T22:45:54.867Z,2.25
2022-10-25T22:49:56.568Z,1.90
2022-10-25T22:53:58.280Z,2.33
2022-10-25T22:57:59.933Z,2.00
2022-10-25T23:02:01.669Z,2.33
2022-10-25T23:06:05.076Z,2.08
2022-10-25T23:10:06.925Z,1.60
2022-10-25T23:14:13.328Z,1.55
2022-10-25T23:18:18.286Z,1.60
2022-10-25T23:22:19.929Z,1.62
2022-10-25T23:26:27.275Z,1.60
2022-10-25T23:34:35.149Z,1.58
2022-10-25T23:38:37.114Z,1.50
2022-10-25T23:42:38.802Z,1.45
2022-10-25T23:46:40.560Z,1.65
2022-10-25T23:50:42.244Z,1.12
2022-10-25T23:54:43.867Z,1.30
2022-10-25T23:58:45.596Z,1.00
